createdAt,value
2022-08-25T00:00:08.841Z,100.00
2022-08-25T00:02:35.545Z,100.00
2022-08-25T00:05:04.667Z,100.00
2022-08-25T00:07:31.300Z,100.00
2022-08-25T00:09:57.879Z,100.00
2022-08-25T00:12:24.525Z,100.00
2022-08-25T00:14:51.126Z,100.00
2022-08-25T00:17:17.792Z,100.00
2022-08-25T00:19:44.644Z,100.00
2022-08-25T00:22:11.301Z,100.00
2022-08-25T00:24:37.896Z,100.00
2022-08-25T00:27:05.569Z,100.00
2022-08-25T00:29:32.919Z,100.00
2022-08-25T00:31:59.812Z,100.00
2022-08-25T00:34:34.244Z,100.00
2022-08-25T00:37:01.776Z,100.00
2022-08-25T00:39:28.477Z,100.00
2022-08-25T00:41:57.108Z,100.00
2022-08-25T00:44:26.145Z,100.00
2022-08-25T00:46:54.724Z,100.00
2022-08-25T00:49:29.094Z,100.00
2022-08-25T00:52:00.427Z,100.00
2022-08-25T00:54:32.973Z,100.00
2022-08-25T00:57:00.855Z,100.00
2022-08-25T00:59:28.221Z,100.00
2022-08-25T01:01:56.068Z,100.00
2022-08-25T01:04:23.780Z,100.00
2022-08-25T01:06:50.689Z,100.00
2022-08-25T01:09:17.969Z,100.00
2022-08-25T01:11:45.508Z,100.00
2022-08-25T01:14:15.015Z,100.00
2022-08-25T01:16:43.776Z,100.00
2022-08-25T01:19:15.251Z,100.00
2022-08-25T01:21:45.115Z,100.00
2022-08-25T01:24:17.019Z,100.00
2022-08-25T01:26:43.729Z,100.00
2022-08-25T01:29:22.409Z,100.00
2022-08-25T01:31:50.883Z,100.00
2022-08-25T01:34:18.849Z,100.00
2022-08-25T01:36:45.623Z,100.00
2022-08-25T01:39:13.543Z,100.00
2022-08-25T01:41:40.096Z,100.00
2022-08-25T01:44:07.552Z,100.00
2022-08-25T01:46:42.790Z,100.00
2022-08-25T01:49:10.642Z,100.00
2022-08-25T01:51:46.695Z,100.00
2022-08-25T01:54:13.566Z,100.00
2022-08-25T01:56:40.263Z,100.00
2022-08-25T01:59:07.012Z,100.00
2022-08-25T02:01:34.538Z,100.00
2022-08-25T02:04:01.441Z,100.00
2022-08-25T02:06:32.327Z,100.00
2022-08-25T02:09:05.442Z,100.00
2022-08-25T02:11:33.766Z,100.00
2022-08-25T02:14:01.049Z,100.00
2022-08-25T02:16:32.860Z,100.00
2022-08-25T02:19:00.285Z,100.00
2022-08-25T02:21:27.166Z,100.00
2022-08-25T02:23:53.824Z,100.00
2022-08-25T02:26:21.086Z,100.00
2022-08-25T02:28:48.094Z,100.00
2022-08-25T02:31:15.781Z,100.00
2022-08-25T02:33:42.427Z,100.00
2022-08-25T02:36:09.181Z,100.00
2022-08-25T02:38:36.184Z,100.00
2022-08-25T02:41:20.240Z,100.00
2022-08-25T02:43:48.883Z,100.00
2022-08-25T02:46:17.137Z,100.00
2022-08-25T02:48:44.562Z,100.00
2022-08-25T02:51:12.289Z,100.00
2022-08-25T02:53:40.491Z,100.00
2022-08-25T02:56:09.669Z,100.00
2022-08-25T02:58:37.544Z,100.00
2022-08-25T03:01:05.326Z,100.00
2022-08-25T03:03:35.205Z,100.00
2022-08-25T03:06:04.391Z,100.00
2022-08-25T03:08:30.979Z,100.00
2022-08-25T03:10:57.597Z,100.00
2022-08-25T03:13:24.229Z,100.00
2022-08-25T03:15:50.882Z,100.00
2022-08-25T03:18:18.371Z,100.00
2022-08-25T03:20:45.799Z,100.00
2022-08-25T03:23:12.677Z,100.00
2022-08-25T03:26:00.648Z,100.00
2022-08-25T03:28:31.280Z,100.00
2022-08-25T03:30:59.129Z,100.00
2022-08-25T03:33:30.190Z,100.00
2022-08-25T03:35:57.436Z,100.00
2022-08-25T03:38:25.362Z,100.00
2022-08-25T03:40:52.719Z,100.00
2022-08-25T03:43:20.041Z,100.00
2022-08-25T03:45:47.867Z,100.00
2022-08-25T03:48:16.345Z,100.00
2022-08-25T03:50:51.942Z,100.00
2022-08-25T03:53:19.945Z,100.00
2022-08-25T03:55:46.937Z,100.00
2022-08-25T03:58:13.765Z,100.00
2022-08-25T04:00:40.887Z,100.00
2022-08-25T04:03:07.656Z,100.00
2022-08-25T04:05:34.250Z,100.00
2022-08-25T04:08:01.997Z,100.00
2022-08-25T04:10:29.186Z,100.00
2022-08-25T04:12:56.167Z,100.00
2022-08-25T04:15:22.912Z,100.00
2022-08-25T04:17:51.834Z,100.00
2022-08-25T04:20:19.091Z,100.00
2022-08-25T04:22:46.002Z,100.00
2022-08-25T04:25:13.141Z,100.00
2022-08-25T04:27:39.990Z,100.00
2022-08-25T04:30:07.273Z,100.00
2022-08-25T04:32:36.107Z,100.00
2022-08-25T04:35:03.395Z,100.00
2022-08-25T04:37:30.025Z,100.00
2022-08-25T04:39:56.627Z,100.00
2022-08-25T04:42:23.291Z,100.00
2022-08-25T04:44:50.121Z,100.00
2022-08-25T04:47:16.815Z,100.00
2022-08-25T04:49:43.447Z,100.00
2022-08-25T04:52:14.278Z,100.00
2022-08-25T04:54:42.181Z,100.00
2022-08-25T04:57:08.845Z,100.00
2022-08-25T04:59:35.555Z,100.00
2022-08-25T05:02:03.208Z,100.00
2022-08-25T05:04:30.476Z,100.00
2022-08-25T05:06:57.553Z,100.00
2022-08-25T05:09:25.350Z,100.00
2022-08-25T05:11:52.596Z,100.00
2022-08-25T05:14:23.174Z,100.00
2022-08-25T05:16:53.599Z,100.00
2022-08-25T05:19:20.163Z,100.00
2022-08-25T05:21:47.154Z,100.00
2022-08-25T05:24:13.827Z,100.00
2022-08-25T05:26:40.608Z,100.00
2022-08-25T05:29:07.621Z,100.00
2022-08-25T05:31:39.559Z,100.00
2022-08-25T05:34:08.911Z,100.00
2022-08-25T05:36:35.559Z,100.00
2022-08-25T05:39:02.239Z,100.00
2022-08-25T05:41:30.614Z,100.00
2022-08-25T05:43:57.690Z,100.00
2022-08-25T05:46:24.600Z,100.00
2022-08-25T05:48:51.468Z,100.00
2022-08-25T05:51:18.634Z,100.00
2022-08-25T05:53:48.668Z,100.00
2022-08-25T05:56:15.786Z,100.00
2022-08-25T05:58:43.473Z,100.00
2022-08-25T06:01:29.792Z,100.00
2022-08-25T06:03:56.553Z,100.00
2022-08-25T06:06:24.439Z,100.00
2022-08-25T06:08:51.800Z,100.00
2022-08-25T06:11:19.322Z,100.00
2022-08-25T06:13:46.488Z,100.00
2022-08-25T06:16:13.219Z,100.00
2022-08-25T06:18:39.851Z,100.00
2022-08-25T06:21:11.238Z,100.00
2022-08-25T06:23:38.470Z,100.00
2022-08-25T06:26:05.283Z,100.00
2022-08-25T06:28:31.882Z,100.00
2022-08-25T06:31:00.286Z,100.00
2022-08-25T06:33:27.229Z,100.00
2022-08-25T06:35:56.052Z,100.00
2022-08-25T06:38:23.434Z,100.00
2022-08-25T06:40:52.094Z,100.00
2022-08-25T06:43:22.073Z,100.00
2022-08-25T06:45:48.822Z,100.00
2022-08-25T06:48:16.127Z,100.00
2022-08-25T06:50:43.215Z,100.00
2022-08-25T06:53:09.846Z,100.00
2022-08-25T06:55:36.885Z,100.00
2022-08-25T06:58:04.925Z,100.00
2022-08-25T07:00:32.970Z,100.00
2022-08-25T07:03:01.147Z,100.00
2022-08-25T07:05:40.913Z,100.00
2022-08-25T07:08:11.903Z,100.00
2022-08-25T07:10:38.973Z,100.00
2022-08-25T07:13:05.558Z,100.00
2022-08-25T07:15:32.207Z,100.00
2022-08-25T07:17:58.843Z,100.00
2022-08-25T07:22:57.988Z,100.00
2022-08-25T07:25:24.689Z,100.00
2022-08-25T07:27:53.897Z,100.00
2022-08-25T07:30:24.026Z,100.00
2022-08-25T07:32:51.349Z,100.00
2022-08-25T07:35:24.607Z,100.00
2022-08-25T07:37:57.136Z,100.00
2022-08-25T07:40:31.911Z,100.00
2022-08-25T07:43:01.539Z,100.00
2022-08-25T07:45:30.673Z,100.00
2022-08-25T07:48:03.402Z,100.00
2022-08-25T07:50:31.343Z,99.82
2022-08-25T07:52:58.747Z,100.00
2022-08-25T07:55:27.037Z,93.78
2022-08-25T07:57:57.155Z,89.17
2022-08-25T08:00:27.717Z,82.71
2022-08-25T08:02:54.933Z,78.72
2022-08-25T08:05:21.655Z,74.29
2022-08-25T08:07:50.590Z,68.92
2022-08-25T08:13:07.240Z,67.87
2022-08-25T08:15:34.971Z,68.93
2022-08-25T08:18:02.104Z,71.56
2022-08-25T08:20:42.845Z,71.71
2022-08-25T08:23:10.682Z,74.50
2022-08-25T08:25:37.334Z,70.47
2022-08-25T08:28:04.098Z,69.56
2022-08-25T08:30:34.413Z,68.93
2022-08-25T08:33:11.139Z,67.19
2022-08-25T08:35:39.769Z,66.39
2022-08-25T08:38:14.552Z,65.91
2022-08-25T08:41:10.425Z,66.33
2022-08-25T08:43:37.412Z,68.10
2022-08-25T08:46:07.590Z,75.30
2022-08-25T08:48:40.790Z,72.54
2022-08-25T08:51:23.140Z,74.73
2022-08-25T08:54:01.265Z,71.87
2022-08-25T08:56:45.331Z,69.11
2022-08-25T08:59:22.148Z,69.03
2022-08-25T09:02:01.854Z,72.64
2022-08-25T09:04:44.254Z,72.54
2022-08-25T09:07:14.800Z,72.84
2022-08-25T09:09:43.504Z,70.50
2022-08-25T09:12:13.484Z,68.85
2022-08-25T09:15:12.873Z,67.14
2022-08-25T09:17:54.865Z,66.57
2022-08-25T09:20:50.646Z,68.29
2022-08-25T09:23:36.238Z,67.47
2022-08-25T09:26:08.958Z,67.66
2022-08-25T09:28:41.832Z,68.97
2022-08-25T09:31:26.454Z,70.36
2022-08-25T09:33:57.497Z,71.16
2022-08-25T09:36:24.735Z,71.23
2022-08-25T09:38:51.743Z,80.25
2022-08-25T09:41:45.074Z,78.22
2022-08-25T09:44:26.033Z,76.25
2022-08-25T09:47:28.026Z,76.71
2022-08-25T09:50:01.817Z,75.54
2022-08-25T09:52:37.812Z,73.72
2022-08-25T09:55:16.467Z,73.60
2022-08-25T09:57:43.006Z,71.55
2022-08-25T10:00:13.742Z,66.65
2022-08-25T10:02:41.669Z,63.19
2022-08-25T10:05:28.271Z,59.51
2022-08-25T10:07:58.449Z,56.85
2022-08-25T10:10:32.467Z,55.96
2022-08-25T10:13:01.177Z,58.24
2022-08-25T10:15:35.316Z,57.28
2022-08-25T10:18:20.718Z,62.88
2022-08-25T10:21:11.925Z,62.45
2022-08-25T10:23:51.647Z,59.21
2022-08-25T10:26:44.282Z,60.20
2022-08-25T10:29:23.725Z,61.59
2022-08-25T10:31:58.191Z,57.87
2022-08-25T10:34:40.047Z,58.87
2022-08-25T10:37:36.045Z,62.73
2022-08-25T10:40:24.241Z,64.56
2022-08-25T10:43:02.680Z,63.59
2022-08-25T10:45:45.756Z,59.73
2022-08-25T10:48:33.603Z,58.65
2022-08-25T10:51:21.524Z,58.52
2022-08-25T10:53:56.235Z,56.95
2022-08-25T10:56:27.922Z,56.73
2022-08-25T10:59:09.268Z,57.14
2022-08-25T11:01:56.486Z,56.77
2022-08-25T11:04:36.625Z,55.39
2022-08-25T11:07:13.380Z,52.77
2022-08-25T11:09:45.342Z,51.07
2022-08-25T11:12:16.247Z,51.45
2022-08-25T11:14:57.255Z,52.79
2022-08-25T11:17:32.958Z,52.86
2022-08-25T11:20:08.490Z,54.60
2022-08-25T11:22:43.046Z,55.67
2022-08-25T11:25:32.332Z,53.68
2022-08-25T11:28:13.150Z,50.79
2022-08-25T11:30:40.773Z,53.22
2022-08-25T11:33:07.627Z,52.59
2022-08-25T11:35:42.485Z,52.96
2022-08-25T11:38:12.401Z,52.23
2022-08-25T11:41:11.091Z,57.71
2022-08-25T11:44:02.176Z,56.02
2022-08-25T11:47:00.382Z,53.63
2022-08-25T11:49:42.102Z,51.35
2022-08-25T11:52:34.781Z,48.78
2022-08-25T11:55:13.655Z,46.34
2022-08-25T11:57:41.862Z,45.51
2022-08-25T12:00:15.001Z,46.17
2022-08-25T12:02:51.222Z,44.88
2022-08-25T12:05:24.206Z,43.85
2022-08-25T12:08:14.145Z,44.04
2022-08-25T12:10:52.620Z,45.91
2022-08-25T12:13:39.130Z,48.95
2022-08-25T12:16:06.370Z,49.29
2022-08-25T12:18:32.924Z,50.44
2022-08-25T12:21:00.919Z,50.34
2022-08-25T12:23:44.712Z,49.37
2022-08-25T12:26:19.066Z,48.81
2022-08-25T12:28:58.900Z,48.02
2022-08-25T12:31:30.484Z,46.79
2022-08-25T12:34:17.527Z,47.24
2022-08-25T12:36:59.791Z,47.17
2022-08-25T12:39:31.859Z,46.14
2022-08-25T12:44:49.483Z,43.41
2022-08-25T12:47:19.234Z,42.47
2022-08-25T12:49:50.809Z,42.12
2022-08-25T12:52:19.820Z,40.88
2022-08-25T12:54:56.284Z,41.41
2022-08-25T12:58:01.080Z,39.85
2022-08-25T13:00:37.863Z,37.92
2022-08-25T13:03:22.807Z,39.22
2022-08-25T13:06:11.515Z,39.89
2022-08-25T13:08:52.763Z,40.31
2022-08-25T13:11:48.996Z,42.12
2022-08-25T13:14:37.815Z,42.88
2022-08-25T13:17:05.640Z,40.82
2022-08-25T13:19:35.000Z,40.93
2022-08-25T13:22:15.579Z,40.13
2022-08-25T13:24:45.364Z,39.35
2022-08-25T13:27:27.542Z,38.92
2022-08-25T13:29:58.985Z,39.45
2022-08-25T13:32:36.885Z,43.65
2022-08-25T13:35:25.553Z,44.00
2022-08-25T13:37:54.726Z,45.04
2022-08-25T13:40:26.286Z,44.15
2022-08-25T13:43:01.119Z,43.41
2022-08-25T13:45:31.901Z,44.38
2022-08-25T13:47:58.863Z,45.40
2022-08-25T13:50:26.417Z,46.27
2022-08-25T13:52:59.085Z,48.47
2022-08-25T13:55:51.001Z,48.24
2022-08-25T13:58:39.018Z,46.07
2022-08-25T14:01:47.388Z,46.74
2022-08-25T14:04:50.775Z,43.98
2022-08-25T14:07:19.503Z,45.53
2022-08-25T14:09:57.631Z,45.21
2022-08-25T14:12:39.923Z,44.81
2022-08-25T14:15:20.041Z,46.33
2022-08-25T14:17:59.087Z,46.07
2022-08-25T14:20:29.151Z,45.64
2022-08-25T14:22:58.705Z,46.33
2022-08-25T14:25:27.649Z,45.43
2022-08-25T14:28:07.758Z,43.36
2022-08-25T14:30:37.203Z,44.30
2022-08-25T14:33:04.474Z,41.74
2022-08-25T14:35:31.692Z,42.16
2022-08-25T14:37:58.353Z,42.34
2022-08-25T14:40:25.115Z,43.64
2022-08-25T14:42:51.784Z,42.70
2022-08-25T14:45:19.202Z,42.65
2022-08-25T14:47:49.885Z,43.19
2022-08-25T14:50:20.057Z,43.90
2022-08-25T14:52:48.356Z,43.28
2022-08-25T14:55:31.148Z,44.04
2022-08-25T14:57:59.229Z,43.87
2022-08-25T15:00:26.341Z,46.21
2022-08-25T15:02:53.210Z,45.78
2022-08-25T15:05:27.021Z,42.47
2022-08-25T15:08:21.963Z,42.17
2022-08-25T15:10:48.585Z,41.62
2022-08-25T15:13:15.175Z,42.69
2022-08-25T15:15:52.342Z,42.66
2022-08-25T15:18:20.680Z,43.27
2022-08-25T15:20:47.478Z,43.24
2022-08-25T15:23:18.443Z,42.94
2022-08-25T15:25:46.748Z,43.28
2022-08-25T15:28:17.208Z,43.16
2022-08-25T15:30:45.972Z,43.00
2022-08-25T15:33:13.775Z,43.72
2022-08-25T15:35:41.110Z,44.02
2022-08-25T15:38:08.312Z,44.47
2022-08-25T15:40:37.527Z,45.11
2022-08-25T15:43:05.269Z,45.68
2022-08-25T15:45:32.151Z,45.68
2022-08-25T15:47:59.598Z,46.54
2022-08-25T15:50:26.909Z,46.95
2022-08-25T15:52:53.702Z,46.02
2022-08-25T15:55:20.983Z,45.27
2022-08-25T15:57:49.517Z,44.70
2022-08-25T16:00:17.667Z,45.30
2022-08-25T16:02:45.416Z,45.77
2022-08-25T16:05:13.682Z,44.61
2022-08-25T16:07:42.834Z,44.40
2022-08-25T16:10:10.391Z,45.03
2022-08-25T16:12:38.033Z,44.94
2022-08-25T16:15:05.729Z,45.44
2022-08-25T16:17:32.388Z,45.84
2022-08-25T16:19:59.086Z,45.96
2022-08-25T16:22:26.034Z,46.30
2022-08-25T16:24:52.665Z,47.25
2022-08-25T16:27:19.905Z,48.17
2022-08-25T16:29:47.235Z,48.68
2022-08-25T16:32:15.320Z,49.78
2022-08-25T16:34:44.366Z,50.54
2022-08-25T16:37:11.537Z,52.53
2022-08-25T16:39:41.370Z,53.34
2022-08-25T16:42:08.011Z,51.98
2022-08-25T16:44:35.208Z,52.87
2022-08-25T16:47:02.339Z,52.95
2022-08-25T16:49:29.014Z,54.32
2022-08-25T16:51:57.196Z,55.49
2022-08-25T16:54:43.943Z,57.60
2022-08-25T16:57:11.127Z,61.38
2022-08-25T16:59:37.704Z,64.56
2022-08-25T17:02:06.329Z,64.98
2022-08-25T17:04:33.017Z,65.13
2022-08-25T17:06:59.807Z,68.21
2022-08-25T17:09:26.481Z,69.48
2022-08-25T17:11:56.769Z,70.81
2022-08-25T17:14:24.150Z,73.88
2022-08-25T17:16:54.487Z,76.70
2022-08-25T17:19:21.255Z,78.10
2022-08-25T17:21:50.762Z,77.80
2022-08-25T17:24:17.780Z,80.38
2022-08-25T17:26:46.422Z,84.29
2022-08-25T17:29:13.033Z,84.53
2022-08-25T17:31:40.143Z,88.18
2022-08-25T17:34:12.140Z,95.03
2022-08-25T17:36:42.983Z,100.00
2022-08-25T17:39:11.985Z,100.00
2022-08-25T17:41:39.001Z,100.00
2022-08-25T17:44:08.445Z,100.00
2022-08-25T17:46:36.502Z,100.00
2022-08-25T17:49:04.026Z,100.00
2022-08-25T17:51:31.865Z,100.00
2022-08-25T17:53:59.184Z,100.00
2022-08-25T17:56:27.230Z,100.00
2022-08-25T17:58:55.391Z,100.00
2022-08-25T18:01:30.515Z,100.00
2022-08-25T18:03:58.870Z,100.00
2022-08-25T18:06:29.389Z,100.00
2022-08-25T18:09:00.019Z,100.00
2022-08-25T18:11:28.540Z,100.00
2022-08-25T18:13:55.785Z,100.00
2022-08-25T18:16:23.465Z,100.00
2022-08-25T18:18:50.159Z,100.00
2022-08-25T18:21:20.357Z,100.00
2022-08-25T18:23:47.762Z,100.00
2022-08-25T18:26:15.509Z,100.00
2022-08-25T18:28:44.012Z,100.00
2022-08-25T18:31:12.218Z,100.00
2022-08-25T18:33:42.135Z,100.00
2022-08-25T18:36:09.814Z,100.00
2022-08-25T18:38:57.907Z,100.00
2022-08-25T18:41:26.494Z,100.00
2022-08-25T18:43:53.331Z,100.00
2022-08-25T18:46:22.683Z,100.00
2022-08-25T18:48:52.569Z,100.00
2022-08-25T18:51:23.075Z,100.00
2022-08-25T18:53:51.119Z,100.00
2022-08-25T18:56:19.178Z,100.00
2022-08-25T18:58:47.439Z,100.00
2022-08-25T19:01:15.698Z,100.00
2022-08-25T19:03:43.115Z,100.00
2022-08-25T19:06:10.687Z,100.00
2022-08-25T19:08:40.056Z,100.00
2022-08-25T19:11:10.018Z,100.00
2022-08-25T19:13:37.463Z,100.00
2022-08-25T19:16:32.165Z,100.00
2022-08-25T19:19:00.927Z,100.00
2022-08-25T19:21:30.250Z,100.00
2022-08-25T19:23:56.918Z,100.00
2022-08-25T19:26:23.674Z,100.00
2022-08-25T19:28:52.781Z,100.00
2022-08-25T19:31:24.235Z,100.00
2022-08-25T19:33:52.913Z,100.00
2022-08-25T19:36:23.413Z,100.00
2022-08-25T19:38:58.524Z,100.00
2022-08-25T19:41:26.175Z,100.00
2022-08-25T19:43:56.425Z,100.00
2022-08-25T19:46:33.131Z,100.00
2022-08-25T19:49:09.141Z,100.00
2022-08-25T19:51:41.285Z,100.00
2022-08-25T19:54:16.081Z,100.00
2022-08-25T19:56:55.054Z,100.00
2022-08-25T19:59:40.699Z,100.00
2022-08-25T20:02:21.859Z,100.00
2022-08-25T20:04:50.336Z,100.00
2022-08-25T20:07:18.983Z,100.00
2022-08-25T20:09:45.927Z,100.00
2022-08-25T20:12:12.937Z,100.00
2022-08-25T20:14:39.795Z,100.00
2022-08-25T20:17:14.374Z,100.00
2022-08-25T20:19:52.499Z,100.00
2022-08-25T20:22:22.500Z,100.00
2022-08-25T20:24:56.063Z,100.00
2022-08-25T20:27:31.037Z,100.00
2022-08-25T20:29:58.391Z,100.00
2022-08-25T20:32:25.176Z,100.00
2022-08-25T20:34:53.914Z,100.00
2022-08-25T20:37:22.491Z,100.00
2022-08-25T20:39:49.216Z,100.00
2022-08-25T20:42:16.350Z,100.00
2022-08-25T20:44:43.028Z,100.00
2022-08-25T20:47:10.735Z,100.00
2022-08-25T20:49:39.567Z,100.00
2022-08-25T20:52:07.826Z,100.00
2022-08-25T20:54:34.680Z,100.00
2022-08-25T20:57:02.592Z,100.00
2022-08-25T20:59:29.432Z,100.00
2022-08-25T21:01:56.322Z,100.00
2022-08-25T21:04:25.961Z,100.00
2022-08-25T21:06:53.016Z,100.00
2022-08-25T21:09:22.804Z,100.00
2022-08-25T21:11:53.237Z,100.00
2022-08-25T21:14:21.157Z,100.00
2022-08-25T21:16:48.244Z,100.00
2022-08-25T21:19:26.638Z,100.00
2022-08-25T21:21:59.932Z,100.00
2022-08-25T21:24:27.494Z,100.00
2022-08-25T21:26:55.894Z,100.00
2022-08-25T21:29:24.426Z,100.00
2022-08-25T21:31:51.118Z,100.00
2022-08-25T21:34:18.819Z,100.00
2022-08-25T21:36:45.991Z,100.00
2022-08-25T21:39:14.419Z,100.00
2022-08-25T21:41:42.778Z,100.00
2022-08-25T21:44:10.406Z,100.00
2022-08-25T21:46:37.460Z,100.00
2022-08-25T21:49:06.707Z,100.00
2022-08-25T21:51:40.978Z,100.00
2022-08-25T21:54:12.950Z,100.00
2022-08-25T21:56:52.310Z,100.00
2022-08-25T21:59:24.115Z,100.00
2022-08-25T22:01:54.773Z,100.00
2022-08-25T22:04:22.857Z,100.00
2022-08-25T22:06:50.276Z,100.00
2022-08-25T22:09:17.357Z,100.00
2022-08-25T22:11:46.189Z,100.00
2022-08-25T22:14:14.500Z,100.00
2022-08-25T22:16:42.580Z,100.00
2022-08-25T22:19:12.444Z,100.00
2022-08-25T22:21:40.547Z,100.00
2022-08-25T22:24:07.294Z,100.00
2022-08-25T22:26:34.143Z,100.00
2022-08-25T22:29:01.623Z,100.00
2022-08-25T22:31:28.649Z,100.00
2022-08-25T22:33:57.716Z,100.00
2022-08-25T22:36:35.938Z,100.00
2022-08-25T22:39:05.094Z,100.00
2022-08-25T22:41:32.221Z,100.00
2022-08-25T22:43:59.940Z,100.00
2022-08-25T22:46:28.285Z,100.00
2022-08-25T22:48:56.608Z,100.00
2022-08-25T22:51:26.898Z,100.00
2022-08-25T22:53:54.705Z,100.00
2022-08-25T22:56:30.954Z,100.00
2022-08-25T22:59:00.499Z,100.00
2022-08-25T23:01:27.770Z,100.00
2022-08-25T23:03:54.753Z,100.00
2022-08-25T23:06:24.890Z,100.00
2022-08-25T23:08:53.669Z,100.00
2022-08-25T23:11:21.471Z,100.00
2022-08-25T23:13:48.113Z,100.00
2022-08-25T23:16:15.640Z,100.00
2022-08-25T23:18:43.908Z,100.00
2022-08-25T23:21:38.231Z,100.00
2022-08-25T23:24:09.075Z,100.00
2022-08-25T23:26:38.189Z,100.00
2022-08-25T23:29:17.760Z,100.00
2022-08-25T23:31:46.611Z,100.00
2022-08-25T23:34:13.713Z,100.00
2022-08-25T23:36:40.757Z,100.00
2022-08-25T23:39:09.015Z,100.00
2022-08-25T23:41:36.874Z,100.00
2022-08-25T23:44:05.546Z,100.00
2022-08-25T23:46:34.972Z,100.00
2022-08-25T23:49:03.956Z,100.00
2022-08-25T23:51:37.198Z,100.00
2022-08-25T23:54:09.220Z,100.00
2022-08-25T23:56:42.247Z,100.00
2022-08-25T23:59:11.298Z,100.00
